Aviation Digital Data Service (ADDS)

Output produced by METARs form (1648 UTC 08 February 2016)
found at http://aviationweather.gov/adds/metars/
 
KPNE 081509Z 0815/0912 01008KT P6SM BKN025 OVC035 
     FM082000 05008KT P6SM OVC015 
     FM090500 07006KT 4SM -SN OVC009